sensor_id;sensor_type;location;lat;lon;timestamp;pressure;altitude;pressure_sealevel;temperature;humidity
68986;BME280;56035;37.534;-122.308;2023-05-18T00:00:22;101009.34;;;20.17;92.48
68986;BME280;56035;37.534;-122.308;2023-05-18T00:02:48;101011.84;;;20.00;90.71
68986;BME280;56035;37.534;-122.308;2023-05-18T00:05:14;101014.53;;;19.86;91.84
68986;BME280;56035;37.534;-122.308;2023-05-18T00:07:42;101011.03;;;19.75;93.22
68986;BME280;56035;37.534;-122.308;2023-05-18T00:10:09;101006.38;;;19.66;93.78
68986;BME280;56035;37.534;-122.308;2023-05-18T00:12:36;101015.38;;;19.57;95.74
68986;BME280;56035;37.534;-122.308;2023-05-18T00:15:01;101003.50;;;19.47;93.78
68986;BME280;56035;37.534;-122.308;2023-05-18T00:17:27;101007.50;;;19.35;94.68
68986;BME280;56035;37.534;-122.308;2023-05-18T00:19:53;101010.94;;;19.27;95.47
68986;BME280;56035;37.534;-122.308;2023-05-18T00:22:23;101003.19;;;19.19;95.88
68986;BME280;56035;37.534;-122.308;2023-05-18T00:24:50;101006.69;;;19.06;97.58
68986;BME280;56035;37.534;-122.308;2023-05-18T00:27:16;101011.50;;;19.00;97.79
68986;BME280;56035;37.534;-122.308;2023-05-18T00:29:42;101010.78;;;18.84;98.77
68986;BME280;56035;37.534;-122.308;2023-05-18T00:32:08;101009.47;;;18.66;99.53
68986;BME280;56035;37.534;-122.308;2023-05-18T00:34:33;101017.84;;;18.66;100.00
68986;BME280;56035;37.534;-122.308;2023-05-18T00:36:59;101012.72;;;18.44;100.00
68986;BME280;56035;37.534;-122.308;2023-05-18T00:39:25;101011.09;;;18.38;100.00
68986;BME280;56035;37.534;-122.308;2023-05-18T00:41:51;101024.59;;;18.16;100.00
68986;BME280;56035;37.534;-122.308;2023-05-18T00:44:16;101023.81;;;18.05;100.00
68986;BME280;56035;37.534;-122.308;2023-05-18T00:46:42;101024.13;;;17.88;100.00
68986;BME280;56035;37.534;-122.308;2023-05-18T00:49:08;101025.00;;;17.68;100.00
68986;BME280;56035;37.534;-122.308;2023-05-18T00:51:35;101021.13;;;17.64;100.00
68986;BME280;56035;37.534;-122.308;2023-05-18T00:54:01;101023.09;;;17.59;100.00
68986;BME280;56035;37.534;-122.308;2023-05-18T00:56:28;101023.13;;;17.53;100.00
68986;BME280;56035;37.534;-122.308;2023-05-18T00:58:58;101024.81;;;17.44;100.00
68986;BME280;56035;37.534;-122.308;2023-05-18T01:01:26;101028.75;;;17.33;100.00
68986;BME280;56035;37.534;-122.308;2023-05-18T01:03:58;101020.41;;;17.18;100.00
68986;BME280;56035;37.534;-122.308;2023-05-18T01:06:27;101031.81;;;17.11;100.00
68986;BME280;56035;37.534;-122.308;2023-05-18T01:08:53;101020.97;;;17.04;100.00
68986;BME280;56035;37.534;-122.308;2023-05-18T01:14:01;101031.78;;;16.80;100.00
68986;BME280;56035;37.534;-122.308;2023-05-18T01:16:29;101031.81;;;16.75;100.00
68986;BME280;56035;37.534;-122.308;2023-05-18T01:18:59;101030.38;;;16.68;100.00
68986;BME280;56035;37.534;-122.308;2023-05-18T01:21:43;101029.53;;;16.62;100.00
68986;BME280;56035;37.534;-122.308;2023-05-18T01:26:43;101031.97;;;16.38;100.00
68986;BME280;56035;37.534;-122.308;2023-05-18T01:29:12;101024.16;;;16.25;100.00
68986;BME280;56035;37.534;-122.308;2023-05-18T01:31:38;101031.38;;;16.15;100.00
68986;BME280;56035;37.534;-122.308;2023-05-18T01:34:04;101032.47;;;16.09;100.00
68986;BME280;56035;37.534;-122.308;2023-05-18T01:36:31;101023.22;;;15.99;100.00
68986;BME280;56035;37.534;-122.308;2023-05-18T01:38:58;101024.91;;;15.95;100.00
68986;BME280;56035;37.534;-122.308;2023-05-18T01:41:29;101022.91;;;15.85;100.00
68986;BME280;56035;37.534;-122.308;2023-05-18T01:46:50;101020.63;;;15.72;100.00
68986;BME280;56035;37.534;-122.308;2023-05-18T01:49:14;101025.81;;;15.63;100.00
68986;BME280;56035;37.534;-122.308;2023-05-18T01:51:45;101014.41;;;15.54;100.00
68986;BME280;56035;37.534;-122.308;2023-05-18T01:54:11;101023.81;;;15.48;100.00
68986;BME280;56035;37.534;-122.308;2023-05-18T01:56:40;101023.75;;;15.43;100.00
68986;BME280;56035;37.534;-122.308;2023-05-18T01:59:07;101017.34;;;15.37;100.00
68986;BME280;56035;37.534;-122.308;2023-05-18T02:01:33;101019.84;;;15.34;100.00
68986;BME280;56035;37.534;-122.308;2023-05-18T02:03:58;101023.06;;;15.20;100.00
68986;BME280;56035;37.534;-122.308;2023-05-18T02:06:24;101027.16;;;15.13;100.00
68986;BME280;56035;37.534;-122.308;2023-05-18T02:08:50;101024.91;;;15.05;100.00
68986;BME280;56035;37.534;-122.308;2023-05-18T02:11:16;101017.56;;;14.88;100.00
68986;BME280;56035;37.534;-122.308;2023-05-18T02:13:42;101016.66;;;14.83;100.00
68986;BME280;56035;37.534;-122.308;2023-05-18T02:16:08;101017.94;;;14.70;100.00
68986;BME280;56035;37.534;-122.308;2023-05-18T02:18:36;101012.53;;;14.58;100.00
68986;BME280;56035;37.534;-122.308;2023-05-18T02:21:02;101014.47;;;14.52;100.00
68986;BME280;56035;37.534;-122.308;2023-05-18T02:23:29;101009.84;;;14.41;100.00
68986;BME280;56035;37.534;-122.308;2023-05-18T02:25:55;101014.53;;;14.36;100.00
68986;BME280;56035;37.534;-122.308;2023-05-18T02:28:21;101013.34;;;14.32;100.00
68986;BME280;56035;37.534;-122.308;2023-05-18T02:30:47;101016.84;;;14.22;100.00
68986;BME280;56035;37.534;-122.308;2023-05-18T02:33:13;101017.56;;;14.12;100.00
68986;BME280;56035;37.534;-122.308;2023-05-18T02:35:38;101018.88;;;14.04;100.00
68986;BME280;56035;37.534;-122.308;2023-05-18T02:38:05;101025.97;;;13.95;100.00
68986;BME280;56035;37.534;-122.308;2023-05-18T02:40:31;101022.47;;;13.83;100.00
68986;BME280;56035;37.534;-122.308;2023-05-18T02:42:57;101019.59;;;13.73;100.00
68986;BME280;56035;37.534;-122.308;2023-05-18T02:45:23;101024.25;;;13.67;100.00
68986;BME280;56035;37.534;-122.308;2023-05-18T02:47:48;101022.19;;;13.57;100.00
68986;BME280;56035;37.534;-122.308;2023-05-18T02:50:14;101026.19;;;13.50;100.00
68986;BME280;56035;37.534;-122.308;2023-05-18T02:52:40;101027.22;;;13.44;100.00
68986;BME280;56035;37.534;-122.308;2023-05-18T02:55:06;101031.03;;;13.38;100.00
68986;BME280;56035;37.534;-122.308;2023-05-18T02:57:32;101033.09;;;13.30;100.00
68986;BME280;56035;37.534;-122.308;2023-05-18T02:59:58;101047.09;;;13.24;100.00
68986;BME280;56035;37.534;-122.308;2023-05-18T03:02:24;101046.19;;;13.18;100.00
68986;BME280;56035;37.534;-122.308;2023-05-18T03:04:52;101041.91;;;13.10;100.00
68986;BME280;56035;37.534;-122.308;2023-05-18T03:07:21;101050.88;;;13.01;100.00
68986;BME280;56035;37.534;-122.308;2023-05-18T03:09:47;101054.63;;;12.95;100.00
68986;BME280;56035;37.534;-122.308;2023-05-18T03:12:13;101055.66;;;12.88;100.00
68986;BME280;56035;37.534;-122.308;2023-05-18T03:14:40;101051.38;;;12.81;100.00
68986;BME280;56035;37.534;-122.308;2023-05-18T03:17:05;101069.44;;;12.72;100.00
68986;BME280;56035;37.534;-122.308;2023-05-18T03:19:31;101068.53;;;12.66;100.00
68986;BME280;56035;37.534;-122.308;2023-05-18T03:21:59;101069.75;;;12.58;100.00
68986;BME280;56035;37.534;-122.308;2023-05-18T03:24:25;101065.47;;;12.51;100.00
68986;BME280;56035;37.534;-122.308;2023-05-18T03:26:54;101075.84;;;12.44;100.00
68986;BME280;56035;37.534;-122.308;2023-05-18T03:29:21;101072.63;;;12.35;100.00
68986;BME280;56035;37.534;-122.308;2023-05-18T03:31:47;101074.44;;;12.29;100.00
68986;BME280;56035;37.534;-122.308;2023-05-18T03:34:13;101077.59;;;12.21;100.00
68986;BME280;56035;37.534;-122.308;2023-05-18T03:36:39;101068.16;;;12.17;100.00
68986;BME280;56035;37.534;-122.308;2023-05-18T03:39:05;101079.91;;;12.12;100.00
68986;BME280;56035;37.534;-122.308;2023-05-18T03:41:31;101078.13;;;12.06;100.00
68986;BME280;56035;37.534;-122.308;2023-05-18T03:43:57;101080.53;;;12.03;100.00
68986;BME280;56035;37.534;-122.308;2023-05-18T03:46:22;101082.38;;;11.97;100.00
68986;BME280;56035;37.534;-122.308;2023-05-18T03:48:48;101086.69;;;11.93;100.00
68986;BME280;56035;37.534;-122.308;2023-05-18T03:51:14;101090.66;;;11.85;100.00
68986;BME280;56035;37.534;-122.308;2023-05-18T03:53:40;101094.13;;;11.81;100.00
68986;BME280;56035;37.534;-122.308;2023-05-18T03:56:06;101092.34;;;11.75;100.00
68986;BME280;56035;37.534;-122.308;2023-05-18T03:58:33;101088.59;;;11.69;100.00
68986;BME280;56035;37.534;-122.308;2023-05-18T04:00:59;101096.28;;;11.67;100.00
68986;BME280;56035;37.534;-122.308;2023-05-18T04:03:25;101095.34;;;11.61;100.00
68986;BME280;56035;37.534;-122.308;2023-05-18T04:05:51;101105.16;;;11.57;100.00
68986;BME280;56035;37.534;-122.308;2023-05-18T04:08:18;101103.63;;;11.49;100.00
68986;BME280;56035;37.534;-122.308;2023-05-18T04:10:43;101108.53;;;11.47;100.00
68986;BME280;56035;37.534;-122.308;2023-05-18T04:13:10;101111.66;;;11.39;100.00
68986;BME280;56035;37.534;-122.308;2023-05-18T04:15:36;101114.28;;;11.34;100.00
68986;BME280;56035;37.534;-122.308;2023-05-18T04:18:02;101107.81;;;11.29;100.00
68986;BME280;56035;37.534;-122.308;2023-05-18T04:20:28;101109.13;;;11.26;100.00
68986;BME280;56035;37.534;-122.308;2023-05-18T04:22:54;101114.28;;;11.22;100.00
68986;BME280;56035;37.534;-122.308;2023-05-18T04:25:21;101121.34;;;11.18;100.00
68986;BME280;56035;37.534;-122.308;2023-05-18T04:27:52;101111.28;;;11.12;100.00
68986;BME280;56035;37.534;-122.308;2023-05-18T04:30:19;101109.47;;;11.06;100.00
68986;BME280;56035;37.534;-122.308;2023-05-18T04:32:47;101115.44;;;11.03;100.00
68986;BME280;56035;37.534;-122.308;2023-05-18T04:35:14;101127.16;;;10.98;100.00
68986;BME280;56035;37.534;-122.308;2023-05-18T04:37:40;101131.47;;;10.94;100.00
68986;BME280;56035;37.534;-122.308;2023-05-18T04:40:07;101135.31;;;10.93;100.00
68986;BME280;56035;37.534;-122.308;2023-05-18T04:42:37;101140.22;;;10.91;100.00
68986;BME280;56035;37.534;-122.308;2023-05-18T04:45:10;101129.91;;;10.98;100.00
68986;BME280;56035;37.534;-122.308;2023-05-18T04:47:37;101137.00;;;10.94;100.00
68986;BME280;56035;37.534;-122.308;2023-05-18T04:50:03;101144.41;;;10.94;100.00
68986;BME280;56035;37.534;-122.308;2023-05-18T04:52:30;101141.91;;;10.92;100.00
68986;BME280;56035;37.534;-122.308;2023-05-18T04:54:55;101142.28;;;10.96;100.00
68986;BME280;56035;37.534;-122.308;2023-05-18T04:57:21;101150.31;;;10.97;100.00
68986;BME280;56035;37.534;-122.308;2023-05-18T04:59:47;101150.78;;;10.94;100.00
68986;BME280;56035;37.534;-122.308;2023-05-18T05:02:13;101156.16;;;10.89;100.00
68986;BME280;56035;37.534;-122.308;2023-05-18T05:04:39;101155.41;;;10.82;100.00
68986;BME280;56035;37.534;-122.308;2023-05-18T05:07:06;101161.16;;;10.81;100.00
68986;BME280;56035;37.534;-122.308;2023-05-18T05:09:31;101164.16;;;10.79;100.00
68986;BME280;56035;37.534;-122.308;2023-05-18T05:11:57;101165.47;;;10.76;100.00
68986;BME280;56035;37.534;-122.308;2023-05-18T05:14:24;101160.63;;;10.72;100.00
68986;BME280;56035;37.534;-122.308;2023-05-18T05:16:49;101156.44;;;10.69;100.00
68986;BME280;56035;37.534;-122.308;2023-05-18T05:19:15;101155.47;;;10.64;100.00
68986;BME280;56035;37.534;-122.308;2023-05-18T05:21:41;101154.63;;;10.63;100.00
68986;BME280;56035;37.534;-122.308;2023-05-18T05:24:07;101164.81;;;10.63;100.00
68986;BME280;56035;37.534;-122.308;2023-05-18T05:26:33;101164.19;;;10.61;100.00
68986;BME280;56035;37.534;-122.308;2023-05-18T05:28:59;101159.31;;;10.63;100.00
68986;BME280;56035;37.534;-122.308;2023-05-18T05:31:25;101160.59;;;10.60;100.00
68986;BME280;56035;37.534;-122.308;2023-05-18T05:33:51;101157.69;;;10.55;100.00
68986;BME280;56035;37.534;-122.308;2023-05-18T05:36:16;101162.59;;;10.53;100.00
68986;BME280;56035;37.534;-122.308;2023-05-18T05:38:42;101162.81;;;10.51;100.00
68986;BME280;56035;37.534;-122.308;2023-05-18T05:41:08;101159.44;;;10.49;100.00
68986;BME280;56035;37.534;-122.308;2023-05-18T05:43:34;101159.06;;;10.46;100.00
68986;BME280;56035;37.534;-122.308;2023-05-18T05:46:00;101159.78;;;10.41;100.00
68986;BME280;56035;37.534;-122.308;2023-05-18T05:48:26;101164.09;;;10.37;100.00
68986;BME280;56035;37.534;-122.308;2023-05-18T05:50:52;101164.53;;;10.34;100.00
68986;BME280;56035;37.534;-122.308;2023-05-18T05:53:17;101165.59;;;10.33;100.00
68986;BME280;56035;37.534;-122.308;2023-05-18T05:55:45;101158.28;;;10.27;100.00
68986;BME280;56035;37.534;-122.308;2023-05-18T05:58:32;101164.22;;;10.24;100.00
68986;BME280;56035;37.534;-122.308;2023-05-18T06:00:57;101162.09;;;10.26;100.00
68986;BME280;56035;37.534;-122.308;2023-05-18T06:03:23;101166.72;;;10.25;100.00
68986;BME280;56035;37.534;-122.308;2023-05-18T06:05:49;101166.53;;;10.27;100.00
68986;BME280;56035;37.534;-122.308;2023-05-18T06:08:15;101166.91;;;10.30;100.00
68986;BME280;56035;37.534;-122.308;2023-05-18T06:10:41;101165.22;;;10.29;100.00
68986;BME280;56035;37.534;-122.308;2023-05-18T06:13:07;101167.75;;;10.31;100.00
68986;BME280;56035;37.534;-122.308;2023-05-18T06:15:33;101156.72;;;10.31;100.00
68986;BME280;56035;37.534;-122.308;2023-05-18T06:17:59;101156.28;;;10.34;100.00
68986;BME280;56035;37.534;-122.308;2023-05-18T06:20:24;101150.16;;;10.32;100.00
68986;BME280;56035;37.534;-122.308;2023-05-18T06:22:51;101150.16;;;10.32;100.00
68986;BME280;56035;37.534;-122.308;2023-05-18T06:25:17;101151.81;;;10.33;100.00
68986;BME280;56035;37.534;-122.308;2023-05-18T06:27:43;101156.72;;;10.31;100.00
68986;BME280;56035;37.534;-122.308;2023-05-18T06:30:10;101155.06;;;10.30;100.00
68986;BME280;56035;37.534;-122.308;2023-05-18T06:32:36;101148.31;;;10.26;100.00
68986;BME280;56035;37.534;-122.308;2023-05-18T06:35:02;101154.25;;;10.23;100.00
68986;BME280;56035;37.534;-122.308;2023-05-18T06:37:28;101150.53;;;10.17;100.00
68986;BME280;56035;37.534;-122.308;2023-05-18T06:39:54;101148.38;;;10.19;100.00
68986;BME280;56035;37.534;-122.308;2023-05-18T06:42:20;101154.94;;;10.18;100.00
68986;BME280;56035;37.534;-122.308;2023-05-18T06:44:46;101149.53;;;10.12;100.00
68986;BME280;56035;37.534;-122.308;2023-05-18T06:47:14;101153.81;;;10.07;100.00
68986;BME280;56035;37.534;-122.308;2023-05-18T06:49:40;101150.19;;;10.07;100.00
68986;BME280;56035;37.534;-122.308;2023-05-18T06:52:06;101154.72;;;10.01;100.00
68986;BME280;56035;37.534;-122.308;2023-05-18T06:54:36;101151.97;;;10.01;100.00
68986;BME280;56035;37.534;-122.308;2023-05-18T06:57:02;101148.13;;;10.02;100.00
68986;BME280;56035;37.534;-122.308;2023-05-18T06:59:28;101148.59;;;9.99;100.00
68986;BME280;56035;37.534;-122.308;2023-05-18T07:01:54;101147.38;;;9.95;100.00
68986;BME280;56035;37.534;-122.308;2023-05-18T07:04:20;101142.31;;;9.92;100.00
68986;BME280;56035;37.534;-122.308;2023-05-18T07:06:46;101137.03;;;9.91;100.00
68986;BME280;56035;37.534;-122.308;2023-05-18T07:09:11;101136.66;;;9.87;100.00
68986;BME280;56035;37.534;-122.308;2023-05-18T07:11:37;101134.59;;;9.82;100.00
68986;BME280;56035;37.534;-122.308;2023-05-18T07:14:04;101138.25;;;9.76;100.00
68986;BME280;56035;37.534;-122.308;2023-05-18T07:16:30;101134.03;;;9.74;100.00
68986;BME280;56035;37.534;-122.308;2023-05-18T07:18:56;101129.44;;;9.68;100.00
68986;BME280;56035;37.534;-122.308;2023-05-18T07:21:25;101127.38;;;9.63;100.00
68986;BME280;56035;37.534;-122.308;2023-05-18T07:23:51;101128.28;;;9.57;100.00
68986;BME280;56035;37.534;-122.308;2023-05-18T07:26:17;101130.91;;;9.52;100.00
68986;BME280;56035;37.534;-122.308;2023-05-18T07:28:43;101140.59;;;9.54;100.00
68986;BME280;56035;37.534;-122.308;2023-05-18T07:31:09;101122.84;;;9.50;100.00
68986;BME280;56035;37.534;-122.308;2023-05-18T07:33:35;101123.94;;;9.49;100.00
68986;BME280;56035;37.534;-122.308;2023-05-18T07:36:01;101130.97;;;9.45;100.00
68986;BME280;56035;37.534;-122.308;2023-05-18T07:38:27;101133.53;;;9.40;100.00
68986;BME280;56035;37.534;-122.308;2023-05-18T07:40:52;101130.16;;;9.38;100.00
68986;BME280;56035;37.534;-122.308;2023-05-18T07:43:18;101128.94;;;9.34;100.00
68986;BME280;56035;37.534;-122.308;2023-05-18T07:45:44;101129.38;;;9.31;100.00
68986;BME280;56035;37.534;-122.308;2023-05-18T07:48:10;101133.59;;;9.33;100.00
68986;BME280;56035;37.534;-122.308;2023-05-18T07:50:36;101132.38;;;9.29;100.00
68986;BME280;56035;37.534;-122.308;2023-05-18T07:53:01;101129.22;;;9.26;100.00
68986;BME280;56035;37.534;-122.308;2023-05-18T07:55:27;101131.34;;;9.24;100.00
68986;BME280;56035;37.534;-122.308;2023-05-18T07:57:53;101131.78;;;9.21;100.00
68986;BME280;56035;37.534;-122.308;2023-05-18T08:00:19;101131.59;;;9.22;100.00
68986;BME280;56035;37.534;-122.308;2023-05-18T08:02:45;101131.16;;;9.19;100.00
68986;BME280;56035;37.534;-122.308;2023-05-18T08:05:10;101141.31;;;9.18;100.00
68986;BME280;56035;37.534;-122.308;2023-05-18T08:07:36;101131.41;;;9.17;100.00
68986;BME280;56035;37.534;-122.308;2023-05-18T08:10:03;101133.91;;;9.19;100.00
68986;BME280;56035;37.534;-122.308;2023-05-18T08:12:28;101132.88;;;9.20;100.00
68986;BME280;56035;37.534;-122.308;2023-05-18T08:14:55;101132.19;;;9.24;100.00
68986;BME280;56035;37.534;-122.308;2023-05-18T08:17:21;101129.81;;;9.28;100.00
68986;BME280;56035;37.534;-122.308;2023-05-18T08:19:46;101119.22;;;9.31;100.00
68986;BME280;56035;37.534;-122.308;2023-05-18T08:22:13;101119.16;;;9.38;100.00
68986;BME280;56035;37.534;-122.308;2023-05-18T08:24:39;101115.50;;;9.44;100.00
68986;BME280;56035;37.534;-122.308;2023-05-18T08:27:05;101123.94;;;9.49;100.00
68986;BME280;56035;37.534;-122.308;2023-05-18T08:29:34;101111.59;;;9.58;100.00
68986;BME280;56035;37.534;-122.308;2023-05-18T08:31:59;101109.44;;;9.60;100.00
68986;BME280;56035;37.534;-122.308;2023-05-18T08:34:25;101114.03;;;9.67;100.00
68986;BME280;56035;37.534;-122.308;2023-05-18T08:36:51;101112.94;;;9.68;100.00
68986;BME280;56035;37.534;-122.308;2023-05-18T08:39:17;101116.56;;;9.68;100.00
68986;BME280;56035;37.534;-122.308;2023-05-18T08:42:02;101118.69;;;9.66;100.00
68986;BME280;56035;37.534;-122.308;2023-05-18T08:44:36;101115.75;;;9.61;100.00
68986;BME280;56035;37.534;-122.308;2023-05-18T08:47:03;101111.78;;;9.57;100.00
68986;BME280;56035;37.534;-122.308;2023-05-18T08:49:32;101110.78;;;9.51;100.00
68986;BME280;56035;37.534;-122.308;2023-05-18T08:51:59;101103.47;;;9.45;100.00
68986;BME280;56035;37.534;-122.308;2023-05-18T08:54:27;101115.13;;;9.41;100.00
68986;BME280;56035;37.534;-122.308;2023-05-18T08:56:55;101111.84;;;9.32;100.00
68986;BME280;56035;37.534;-122.308;2023-05-18T08:59:26;101107.84;;;9.28;100.00
68986;BME280;56035;37.534;-122.308;2023-05-18T09:01:55;101105.97;;;9.22;100.00
68986;BME280;56035;37.534;-122.308;2023-05-18T09:04:21;101100.34;;;9.17;100.00
68986;BME280;56035;37.534;-122.308;2023-05-18T09:06:48;101111.16;;;9.11;100.00
68986;BME280;56035;37.534;-122.308;2023-05-18T09:09:14;101101.66;;;9.07;100.00
68986;BME280;56035;37.534;-122.308;2023-05-18T09:11:40;101104.47;;;9.01;100.00
68986;BME280;56035;37.534;-122.308;2023-05-18T09:14:06;101103.25;;;8.97;100.00
68986;BME280;56035;37.534;-122.308;2023-05-18T09:16:32;101095.44;;;8.94;100.00
68986;BME280;56035;37.534;-122.308;2023-05-18T09:18:58;101100.31;;;8.91;100.00
68986;BME280;56035;37.534;-122.308;2023-05-18T09:21:24;101098.00;;;8.88;100.00
68986;BME280;56035;37.534;-122.308;2023-05-18T09:23:50;101098.44;;;8.85;100.00
68986;BME280;56035;37.534;-122.308;2023-05-18T09:26:17;101095.31;;;8.82;100.00
68986;BME280;56035;37.534;-122.308;2023-05-18T09:28:43;101101.03;;;8.80;100.00
68986;BME280;56035;37.534;-122.308;2023-05-18T09:31:15;101089.66;;;8.77;100.00
68986;BME280;56035;37.534;-122.308;2023-05-18T09:33:42;101092.84;;;8.74;100.00
68986;BME280;56035;37.534;-122.308;2023-05-18T09:36:08;101100.47;;;8.72;100.00
68986;BME280;56035;37.534;-122.308;2023-05-18T09:38:37;101094.81;;;8.66;100.00
68986;BME280;56035;37.534;-122.308;2023-05-18T09:41:07;101091.03;;;8.61;100.00
68986;BME280;56035;37.534;-122.308;2023-05-18T09:43:34;101092.53;;;8.57;100.00
68986;BME280;56035;37.534;-122.308;2023-05-18T09:46:00;101091.50;;;8.51;100.00
68986;BME280;56035;37.534;-122.308;2023-05-18T09:48:30;101090.47;;;8.46;100.00
68986;BME280;56035;37.534;-122.308;2023-05-18T09:50:57;101087.34;;;8.42;100.00
68986;BME280;56035;37.534;-122.308;2023-05-18T09:53:23;101092.59;;;8.37;100.00
68986;BME280;56035;37.534;-122.308;2023-05-18T09:55:49;101091.16;;;8.34;100.00
68986;BME280;56035;37.534;-122.308;2023-05-18T09:58:15;101093.25;;;8.32;100.00
68986;BME280;56035;37.534;-122.308;2023-05-18T10:00:43;101082.09;;;8.27;100.00
68986;BME280;56035;37.534;-122.308;2023-05-18T10:03:18;101089.91;;;8.24;100.00
68986;BME280;56035;37.534;-122.308;2023-05-18T10:05:45;101086.78;;;8.20;100.00
68986;BME280;56035;37.534;-122.308;2023-05-18T10:08:12;101091.66;;;8.18;100.00
68986;BME280;56035;37.534;-122.308;2023-05-18T10:10:40;101093.75;;;8.16;100.00
68986;BME280;56035;37.534;-122.308;2023-05-18T10:13:10;101096.75;;;8.14;100.00
68986;BME280;56035;37.534;-122.308;2023-05-18T10:15:44;101095.03;;;8.13;100.00
68986;BME280;56035;37.534;-122.308;2023-05-18T10:18:10;101086.59;;;8.15;100.00
68986;BME280;56035;37.534;-122.308;2023-05-18T10:20:36;101089.34;;;8.15;100.00
68986;BME280;56035;37.534;-122.308;2023-05-18T10:23:03;101078.13;;;8.16;100.00
68986;BME280;56035;37.534;-122.308;2023-05-18T10:25:29;101085.31;;;8.24;100.00
68986;BME280;56035;37.534;-122.308;2023-05-18T10:27:58;101091.16;;;8.41;100.00
68986;BME280;56035;37.534;-122.308;2023-05-18T10:30:25;101093.63;;;8.49;100.00
68986;BME280;56035;37.534;-122.308;2023-05-18T10:32:51;101094.47;;;8.50;100.00
68986;BME280;56035;37.534;-122.308;2023-05-18T10:35:18;101093.41;;;8.51;100.00
68986;BME280;56035;37.534;-122.308;2023-05-18T10:37:46;101096.97;;;8.58;100.00
68986;BME280;56035;37.534;-122.308;2023-05-18T10:40:12;101098.19;;;8.62;100.00
68986;BME280;56035;37.534;-122.308;2023-05-18T10:42:39;101098.59;;;8.65;100.00
68986;BME280;56035;37.534;-122.308;2023-05-18T10:45:06;101101.34;;;8.65;100.00
68986;BME280;56035;37.534;-122.308;2023-05-18T10:47:32;101099.22;;;8.67;100.00
68986;BME280;56035;37.534;-122.308;2023-05-18T10:50:00;101098.59;;;8.65;100.00
68986;BME280;56035;37.534;-122.308;2023-05-18T10:52:26;101093.72;;;8.67;100.00
68986;BME280;56035;37.534;-122.308;2023-05-18T10:54:57;101101.53;;;8.71;100.00
68986;BME280;56035;37.534;-122.308;2023-05-18T10:57:22;101100.69;;;8.70;100.00
68986;BME280;56035;37.534;-122.308;2023-05-18T10:59:50;101104.09;;;8.65;100.00
68986;BME280;56035;37.534;-122.308;2023-05-18T11:02:16;101093.34;;;8.64;100.00
68986;BME280;56035;37.534;-122.308;2023-05-18T11:04:44;101103.66;;;8.68;100.00
68986;BME280;56035;37.534;-122.308;2023-05-18T11:07:10;101098.19;;;8.62;100.00
68986;BME280;56035;37.534;-122.308;2023-05-18T11:09:39;101099.88;;;8.63;100.00
68986;BME280;56035;37.534;-122.308;2023-05-18T11:12:05;101106.22;;;8.63;100.00
68986;BME280;56035;37.534;-122.308;2023-05-18T11:14:35;101101.78;;;8.62;100.00
68986;BME280;56035;37.534;-122.308;2023-05-18T11:17:15;101099.03;;;8.62;100.00
68986;BME280;56035;37.534;-122.308;2023-05-18T11:22:38;101104.66;;;8.74;100.00
68986;BME280;56035;37.534;-122.308;2023-05-18T11:25:07;101099.97;;;8.81;100.00
68986;BME280;56035;37.534;-122.308;2023-05-18T11:27:33;101100.53;;;8.90;100.00
68986;BME280;56035;37.534;-122.308;2023-05-18T11:29:58;101094.59;;;8.93;100.00
68986;BME280;56035;37.534;-122.308;2023-05-18T11:32:28;101096.47;;;8.99;100.00
68986;BME280;56035;37.534;-122.308;2023-05-18T11:34:56;101100.22;;;9.05;100.00
68986;BME280;56035;37.534;-122.308;2023-05-18T11:40:04;101111.72;;;9.20;100.00
68986;BME280;56035;37.534;-122.308;2023-05-18T11:42:33;101116.72;;;9.30;100.00
68986;BME280;56035;37.534;-122.308;2023-05-18T11:45:08;101114.72;;;9.37;100.00
68986;BME280;56035;37.534;-122.308;2023-05-18T11:47:34;101114.47;;;9.45;100.00
68986;BME280;56035;37.534;-122.308;2023-05-18T11:50:01;101120.94;;;9.51;100.00
68986;BME280;56035;37.534;-122.308;2023-05-18T11:52:27;101129.13;;;9.57;100.00
68986;BME280;56035;37.534;-122.308;2023-05-18T11:54:54;101116.78;;;9.67;100.00
68986;BME280;56035;37.534;-122.308;2023-05-18T11:59:59;101117.53;;;9.74;100.00
68986;BME280;56035;37.534;-122.308;2023-05-18T12:02:29;101125.72;;;9.80;100.00
68986;BME280;56035;37.534;-122.308;2023-05-18T12:04:56;101127.19;;;9.83;100.00
68986;BME280;56035;37.534;-122.308;2023-05-18T12:07:22;101115.25;;;9.89;100.00
68986;BME280;56035;37.534;-122.308;2023-05-18T12:09:56;101117.09;;;9.95;100.00
68986;BME280;56035;37.534;-122.308;2023-05-18T12:12:22;101119.41;;;9.98;100.00
68986;BME280;56035;37.534;-122.308;2023-05-18T12:14:55;101115.09;;;10.02;100.00
68986;BME280;56035;37.534;-122.308;2023-05-18T12:17:21;101113.81;;;10.05;100.00
68986;BME280;56035;37.534;-122.308;2023-05-18T12:19:48;101107.84;;;10.08;100.00
68986;BME280;56035;37.534;-122.308;2023-05-18T12:22:14;101115.41;;;10.13;100.00
68986;BME280;56035;37.534;-122.308;2023-05-18T12:24:41;101111.97;;;10.17;100.00
68986;BME280;56035;37.534;-122.308;2023-05-18T12:27:08;101108.16;;;10.18;100.00
68986;BME280;56035;37.534;-122.308;2023-05-18T12:29:37;101096.88;;;10.20;100.00